Time;durP1;ratioP1;P1;durP2;ratioP2;P2;SDS_P1;SDS_P2;PMS_P1;PMS_P2;Temp;Humidity;BMP_temperature;BMP_pressure;BME280_temperature;BME280_humidity;BME280_pressure;Samples;Min_cycle;Max_cycle;Signal;HPM_P1;HPM_P2
2022/04/24 00:00:29;;;;;;;;;;;;;;;17.40;47.42;100600.81;4965669;28;19922;-77
2022/04/24 00:02:54;;;;;;;;;;;;;;;17.45;46.86;100592.06;4982901;28;20372;-77
2022/04/24 00:05:20;;;;;;;;;;;;;;;17.51;46.87;100598.94;4949849;28;19922;-77
2022/04/24 00:07:45;;;;;;;;;;;;;;;17.50;46.63;100599.78;4984347;28;19925;-77
2022/04/24 00:10:13;;;;;;;;;;;;;;;17.43;46.80;100593.81;4965729;28;19918;-77
2022/04/24 00:12:38;;;;;;;;;;;;;;;17.35;46.68;100594.78;4948763;28;19918;-77
2022/04/24 00:15:05;;;;;;;;;;;;;;;17.34;46.97;100593.06;4960107;28;19937;-77
2022/04/24 00:17:30;;;;;;;;;;;;;;;17.42;46.98;100597.31;4944150;28;19918;-77
2022/04/24 00:19:55;;;;;;;;;;;;;;;17.47;46.48;100585.09;4977067;28;19921;-77
2022/04/24 00:22:21;;;;;;;;;;;;;;;17.44;46.76;100594.66;4977145;28;20013;-77
2022/04/24 00:24:46;;;;;;;;;;;;;;;17.46;46.97;100591.19;4978679;28;19918;-77
2022/04/24 00:27:12;;;;;;;;;;;;;;;17.54;46.75;100592.81;4946088;28;19918;-77
2022/04/24 00:29:37;;;;;;;;;;;;;;;17.47;46.68;100592.91;4961928;28;19918;-77
2022/04/24 00:32:03;;;;;;;;;;;;;;;17.45;47.18;100589.44;4962133;28;19914;-77
2022/04/24 00:34:29;;;;;;;;;;;;;;;17.48;46.95;100585.94;4946129;28;20254;-77
2022/04/24 00:36:54;;;;;;;;;;;;;;;17.47;47.60;100584.22;4981305;28;19914;-77
2022/04/24 00:39:19;;;;;;;;;;;;;;;17.52;46.90;100586.78;4963795;28;19913;-77
2022/04/24 00:41:44;;;;;;;;;;;;;;;17.58;46.61;100581.50;4947971;28;19922;-77
2022/04/24 00:44:10;;;;;;;;;;;;;;;17.57;46.42;100591.03;4981315;28;19925;-77
2022/04/24 00:47:02;;;;;;;;;;;;;;;17.58;47.02;100591.91;4947365;28;20424;-77
2022/04/24 00:49:28;;;;;;;;;;;;;;;17.54;46.67;100582.41;4959221;28;19914;-77
2022/04/24 00:51:53;;;;;;;;;;;;;;;17.43;47.41;100586.00;4946732;28;19918;-77
2022/04/24 00:54:19;;;;;;;;;;;;;;;17.36;46.55;100591.31;4981428;28;19977;-76
2022/04/24 00:56:44;;;;;;;;;;;;;;;17.39;46.87;100583.47;4980663;28;19914;-76
2022/04/24 00:59:10;;;;;;;;;;;;;;;17.46;46.97;100585.97;4963423;28;19976;-76
2022/04/24 01:01:36;;;;;;;;;;;;;;;17.39;46.86;100583.47;4963637;28;20036;-77
2022/04/24 01:04:04;;;;;;;;;;;;;;;17.40;46.90;100580.84;4949886;28;19957;-77
2022/04/24 01:06:34;;;;;;;;;;;;;;;17.53;46.70;100576.34;4984451;28;20306;-77
2022/04/24 01:09:09;;;;;;;;;;;;;;;17.64;46.65;100581.41;4984332;28;19918;-77
2022/04/24 01:11:34;;;;;;;;;;;;;;;17.56;47.21;100585.84;4982779;28;19921;-77
2022/04/24 01:13:59;;;;;;;;;;;;;;;17.51;46.87;100587.63;4950536;28;19922;-77
2022/04/24 01:16:24;;;;;;;;;;;;;;;17.41;46.89;100584.31;4950996;28;20277;-77
2022/04/24 01:18:50;;;;;;;;;;;;;;;17.56;46.65;100591.06;4950059;28;19944;-77
2022/04/24 01:21:16;;;;;;;;;;;;;;;17.56;47.03;100591.91;4964312;28;19969;-78
2022/04/24 01:23:41;;;;;;;;;;;;;;;17.55;46.73;100585.00;4964267;28;19923;-77
2022/04/24 01:26:06;;;;;;;;;;;;;;;17.53;46.81;100586.75;4963937;28;19925;-77
2022/04/24 01:28:31;;;;;;;;;;;;;;;17.52;46.73;100590.22;4947901;28;19918;-77
2022/04/24 01:30:57;;;;;;;;;;;;;;;17.52;46.60;100589.38;4948279;28;19918;-77
2022/04/24 01:33:22;;;;;;;;;;;;;;;17.48;47.55;100593.75;4948039;28;19972;-77
2022/04/24 01:35:47;;;;;;;;;;;;;;;17.45;46.95;100593.78;4947632;28;19987;-76
2022/04/24 01:38:12;;;;;;;;;;;;;;;17.38;47.24;100593.03;4943698;28;19918;-77
2022/04/24 01:40:38;;;;;;;;;;;;;;;17.43;46.67;100588.59;4958354;28;19968;-77
2022/04/24 01:43:03;;;;;;;;;;;;;;;17.36;46.80;100588.72;4958690;28;20020;-77
2022/04/24 01:45:28;;;;;;;;;;;;;;;17.40;46.63;100583.47;4943509;28;19934;-77
2022/04/24 01:47:53;;;;;;;;;;;;;;;17.44;46.47;100585.13;4944449;28;19925;-77
2022/04/24 01:50:18;;;;;;;;;;;;;;;17.44;46.50;100595.53;4961724;28;19969;-77
2022/04/24 01:52:44;;;;;;;;;;;;;;;17.40;46.37;100598.22;4945718;28;19925;-77
2022/04/24 01:55:09;;;;;;;;;;;;;;;17.47;46.50;100594.63;4962189;28;19915;-77
2022/04/24 01:57:34;;;;;;;;;;;;;;;17.43;46.61;100599.00;4946332;28;19933;-77
2022/04/24 01:59:59;;;;;;;;;;;;;;;17.40;46.56;100606.00;4962212;28;19926;-77
2022/04/24 02:02:25;;;;;;;;;;;;;;;17.38;46.47;100606.03;4961348;28;19980;-77
2022/04/24 02:04:50;;;;;;;;;;;;;;;17.41;46.36;100607.72;4944975;28;19930;-77
2022/04/24 02:07:15;;;;;;;;;;;;;;;17.47;46.35;100598.09;4961802;28;19919;-77
2022/04/24 02:09:40;;;;;;;;;;;;;;;17.46;46.12;100595.50;4945205;28;19918;-76
2022/04/24 02:12:06;;;;;;;;;;;;;;;17.47;46.33;100607.66;4946010;28;19919;-77
2022/04/24 02:14:32;;;;;;;;;;;;;;;17.26;47.34;100604.41;4961891;28;19937;-76
2022/04/24 02:16:58;;;;;;;;;;;;;;;17.24;46.61;100608.78;4962702;28;19914;-77
2022/04/24 02:19:23;;;;;;;;;;;;;;;17.32;45.82;100603.50;4961715;28;19965;-77
2022/04/24 02:21:48;;;;;;;;;;;;;;;17.37;46.84;100609.50;4942878;28;19932;-77
2022/04/24 02:24:14;;;;;;;;;;;;;;;17.39;46.71;100606.88;4960386;28;20009;-76
2022/04/24 02:26:39;;;;;;;;;;;;;;;17.38;46.00;100607.78;4978876;28;20372;-77
2022/04/24 02:29:04;;;;;;;;;;;;;;;17.37;46.17;100600.84;4980138;28;20270;-76
2022/04/24 02:31:29;;;;;;;;;;;;;;;17.41;46.48;100608.56;4963827;28;19922;-77
2022/04/24 02:33:55;;;;;;;;;;;;;;;17.39;46.14;100609.47;4947281;28;20381;-76
2022/04/24 02:36:20;;;;;;;;;;;;;;;17.39;46.77;100614.69;4964069;28;20266;-76
2022/04/24 02:38:45;;;;;;;;;;;;;;;17.33;46.16;100613.00;4957870;28;19918;-77
2022/04/24 02:41:11;;;;;;;;;;;;;;;17.38;45.84;100610.38;4958188;28;19922;-77
2022/04/24 02:43:36;;;;;;;;;;;;;;;17.35;45.98;100610.38;4974857;28;19961;-76
2022/04/24 02:46:01;;;;;;;;;;;;;;;17.39;45.82;100607.72;4942086;28;20365;-76
2022/04/24 02:48:27;;;;;;;;;;;;;;;17.31;45.71;100599.19;4941673;28;19925;-76
2022/04/24 02:50:53;;;;;;;;;;;;;;;17.37;45.80;100603.44;4943986;28;19918;-76
2022/04/24 02:53:18;;;;;;;;;;;;;;;17.40;45.65;100601.66;4978498;28;19937;-76
2022/04/24 02:55:43;;;;;;;;;;;;;;;17.39;45.79;100593.88;4944934;28;19918;-76
2022/04/24 02:58:08;;;;;;;;;;;;;;;17.26;45.83;100601.81;4978360;28;20289;-77
2022/04/24 03:00:43;;;;;;;;;;;;;;;17.29;45.80;100606.13;4961804;28;20068;-76
2022/04/24 03:03:09;;;;;;;;;;;;;;;17.19;46.24;100601.91;4962020;28;19918;-76
2022/04/24 03:05:34;;;;;;;;;;;;;;;17.21;45.79;100602.75;4960971;28;20026;-77
2022/04/24 03:07:59;;;;;;;;;;;;;;;17.24;45.79;100597.50;4978297;28;19999;-77
2022/04/24 03:10:25;;;;;;;;;;;;;;;17.25;45.68;100594.91;4960841;28;19922;-77
2022/04/24 03:12:50;;;;;;;;;;;;;;;17.29;45.76;100590.53;4944874;28;19918;-77
2022/04/24 03:15:15;;;;;;;;;;;;;;;17.37;45.57;100595.63;4944991;28;19918;-77
2022/04/24 03:17:41;;;;;;;;;;;;;;;17.38;45.78;100594.75;4960945;28;19925;-77
2022/04/24 03:20:07;;;;;;;;;;;;;;;17.37;45.47;100590.44;4977862;28;20359;-77
2022/04/24 03:22:36;;;;;;;;;;;;;;;17.35;45.78;100592.19;4988549;28;19965;-82
2022/04/24 03:25:02;;;;;;;;;;;;;;;17.38;45.67;100600.81;5001042;28;19965;-84
2022/04/24 03:27:27;;;;;;;;;;;;;;;17.32;45.63;100598.28;4985049;28;19906;-83
2022/04/24 03:29:53;;;;;;;;;;;;;;;17.28;45.65;100592.25;5001434;28;20416;-83
2022/04/24 03:32:18;;;;;;;;;;;;;;;17.32;45.80;100597.44;4968690;28;19913;-83
2022/04/24 03:34:43;;;;;;;;;;;;;;;17.31;45.69;100596.59;5001764;28;20018;-83
2022/04/24 03:37:08;;;;;;;;;;;;;;;17.31;46.00;100591.38;4984128;28;19929;-82
2022/04/24 03:39:34;;;;;;;;;;;;;;;17.35;45.79;100598.25;4983589;28;19973;-81
2022/04/24 03:41:59;;;;;;;;;;;;;;;17.31;45.69;100587.91;4982189;28;19918;-82
2022/04/24 03:47:00;;;;;;;;;;;;;;;17.25;45.55;100589.69;5268252;23;19916;-81
2022/04/24 03:49:28;;;;;;;;;;;;;;;17.26;45.47;100587.97;4999399;28;19961;-82
2022/04/24 03:51:54;;;;;;;;;;;;;;;17.26;45.54;100586.22;4997931;28;19920;-82
2022/04/24 03:54:19;;;;;;;;;;;;;;;17.31;45.95;100593.09;4996443;28;19945;-78
2022/04/24 03:56:45;;;;;;;;;;;;;;;17.31;45.64;100601.78;4988175;28;19914;-83
2022/04/24 03:59:10;;;;;;;;;;;;;;;17.29;45.91;100590.53;4980685;28;19925;-82
2022/04/24 04:01:35;;;;;;;;;;;;;;;17.34;45.65;100599.13;5013347;28;19981;-83
2022/04/24 04:04:01;;;;;;;;;;;;;;;17.31;45.66;100596.59;5014767;28;19921;-83
2022/04/24 04:06:26;;;;;;;;;;;;;;;17.30;45.52;100600.03;4981679;28;19925;-83
2022/04/24 04:08:51;;;;;;;;;;;;;;;17.28;45.81;100584.44;4997494;28;19941;-83
2022/04/24 04:11:16;;;;;;;;;;;;;;;17.27;45.80;100592.28;4981451;28;19922;-83
2022/04/24 04:13:42;;;;;;;;;;;;;;;17.27;45.78;100598.34;4980531;28;19977;-83
2022/04/24 04:16:07;;;;;;;;;;;;;;;17.30;45.75;100594.84;4982180;28;19922;-83
2022/04/24 04:18:33;;;;;;;;;;;;;;;17.28;45.53;100600.06;4982514;28;19917;-83
2022/04/24 04:20:59;;;;;;;;;;;;;;;17.26;45.57;100601.81;4997901;28;19918;-83
2022/04/24 04:23:24;;;;;;;;;;;;;;;17.20;45.57;100608.81;4982832;28;20013;-84
2022/04/24 04:25:49;;;;;;;;;;;;;;;17.20;46.50;100611.44;5017050;28;19921;-83
2022/04/24 04:28:14;;;;;;;;;;;;;;;17.12;45.73;100615.88;4997223;28;19914;-82
2022/04/24 04:30:40;;;;;;;;;;;;;;;17.11;45.79;100611.53;4997126;28;19918;-82
2022/04/24 04:33:06;;;;;;;;;;;;;;;17.05;45.46;100613.34;5014722;28;19905;-83
2022/04/24 04:35:31;;;;;;;;;;;;;;;16.96;46.00;100613.44;4980358;28;19918;-83
2022/04/24 04:37:56;;;;;;;;;;;;;;;16.99;45.60;100617.75;4979406;28;19918;-83
2022/04/24 04:40:21;;;;;;;;;;;;;;;17.05;45.13;100621.13;4998261;28;19914;-83
2022/04/24 04:42:48;;;;;;;;;;;;;;;17.07;45.10;100626.31;4998156;28;19948;-84
2022/04/24 04:45:13;;;;;;;;;;;;;;;16.98;45.18;100627.25;4997679;28;20341;-83
2022/04/24 04:47:38;;;;;;;;;;;;;;;17.07;45.13;100623.69;4964143;28;19987;-83
2022/04/24 04:50:04;;;;;;;;;;;;;;;17.03;45.15;100628.09;4963510;28;19922;-83
2022/04/24 04:52:29;;;;;;;;;;;;;;;17.08;44.94;100630.63;4994732;28;19918;-83
2022/04/24 04:54:54;;;;;;;;;;;;;;;17.11;45.11;100633.19;4993963;28;19921;-83
2022/04/24 04:57:20;;;;;;;;;;;;;;;17.14;44.80;100634.91;4961966;28;19925;-83
2022/04/24 04:59:45;;;;;;;;;;;;;;;17.16;44.82;100638.34;4994861;28;19919;-82
2022/04/24 05:02:10;;;;;;;;;;;;;;;17.17;44.69;100640.06;4962677;28;19928;-83
2022/04/24 05:04:35;;;;;;;;;;;;;;;17.20;44.39;100637.44;4980962;28;19925;-82
2022/04/24 05:07:01;;;;;;;;;;;;;;;17.16;44.77;100639.22;4980062;28;19972;-82
2022/04/24 05:09:26;;;;;;;;;;;;;;;17.21;44.67;100641.78;4997967;28;19918;-83
2022/04/24 05:11:51;;;;;;;;;;;;;;;17.25;44.37;100648.66;4980763;28;19902;-84
2022/04/24 05:14:16;;;;;;;;;;;;;;;17.24;44.87;100641.72;4980299;28;19914;-83
2022/04/24 05:16:42;;;;;;;;;;;;;;;17.22;44.66;100649.56;4979378;28;19925;-83
2022/04/24 05:19:07;;;;;;;;;;;;;;;17.24;44.74;100647.78;4976681;28;19918;-83
2022/04/24 05:21:32;;;;;;;;;;;;;;;17.28;44.74;100649.47;4977219;28;19922;-83
2022/04/24 05:23:58;;;;;;;;;;;;;;;17.25;44.43;100654.72;4993514;28;19922;-83
2022/04/24 05:26:23;;;;;;;;;;;;;;;17.27;44.69;100660.75;4977199;28;19925;-83
2022/04/24 05:28:48;;;;;;;;;;;;;;;17.32;44.90;100663.31;4976264;28;19924;-83
2022/04/24 05:31:13;;;;;;;;;;;;;;;17.34;44.53;100660.69;4957603;28;19990;-83
2022/04/24 05:33:39;;;;;;;;;;;;;;;17.17;45.16;100655.69;4957018;28;19925;-83
2022/04/24 05:36:05;;;;;;;;;;;;;;;17.31;44.05;100669.41;4976693;28;19922;-84
2022/04/24 05:43:44;;;;;;;;;;;;;;;17.79;42.13;100658.41;5513899;23;19931;-82
2022/04/24 05:46:09;;;;;;;;;;;;;;;17.97;41.67;100659.94;5744081;23;20008;-84
2022/04/24 05:58:58;;;;;;;;;;;;;;;18.65;39.88;100654.56;5007177;23;19933;-82
2022/04/24 06:01:24;;;;;;;;;;;;;;;18.87;39.29;100660.28;4979456;28;19930;-80
2022/04/24 06:03:52;;;;;;;;;;;;;;;19.01;39.09;100665.25;5200359;23;19909;-81
2022/04/24 06:25:46;;;;;;;;;;;;;;;19.60;36.37;100667.56;5268498;23;19910;-84
2022/04/24 06:28:12;;;;;;;;;;;;;;;19.54;36.13;100679.03;4983582;28;19950;-84
2022/04/24 06:33:12;;;;;;;;;;;;;;;19.46;36.34;100665.25;5446752;23;19926;-78
2022/04/24 06:35:38;;;;;;;;;;;;;;;19.58;37.22;100666.78;5005716;28;19975;-78
2022/04/24 06:38:04;;;;;;;;;;;;;;;19.62;36.20;100671.00;5005787;28;20361;-78
2022/04/24 06:40:30;;;;;;;;;;;;;;;19.66;36.26;100677.91;4971495;28;19925;-78
2022/04/24 06:42:56;;;;;;;;;;;;;;;19.66;37.00;100675.28;4987484;28;20021;-78
2022/04/24 06:45:25;;;;;;;;;;;;;;;19.66;35.45;100678.78;4989381;28;19917;-79
2022/04/24 06:47:50;;;;;;;;;;;;;;;19.75;36.38;100675.16;4987760;28;19914;-77
2022/04/24 06:50:15;;;;;;;;;;;;;;;19.74;36.67;100673.41;4987717;28;19925;-78
2022/04/24 06:52:41;;;;;;;;;;;;;;;19.72;34.90;100673.44;4989237;28;19925;-78
2022/04/24 06:55:06;;;;;;;;;;;;;;;19.71;35.96;100674.34;4989226;28;19926;-77
2022/04/24 06:57:33;;;;;;;;;;;;;;;19.78;35.63;100674.22;4972704;28;19924;-78
2022/04/24 06:59:58;;;;;;;;;;;;;;;19.79;36.35;100682.00;4990979;28;19914;-76
2022/04/24 07:02:23;;;;;;;;;;;;;;;19.84;35.29;100684.53;4974472;28;19968;-77
2022/04/24 07:04:48;;;;;;;;;;;;;;;19.84;35.11;100684.53;4973366;28;20447;-77
2022/04/24 07:07:14;;;;;;;;;;;;;;;19.79;35.50;100679.38;4973812;28;19996;-77
2022/04/24 07:09:39;;;;;;;;;;;;;;;19.81;36.00;100680.22;4973468;28;19925;-77
2022/04/24 07:12:04;;;;;;;;;;;;;;;19.83;34.86;100681.03;4974161;28;19917;-77
2022/04/24 07:14:30;;;;;;;;;;;;;;;19.85;35.16;100681.88;4972009;28;19969;-77
2022/04/24 07:16:55;;;;;;;;;;;;;;;19.81;36.01;100681.97;4973302;28;19924;-77
2022/04/24 07:19:20;;;;;;;;;;;;;;;19.91;35.24;100693.97;4989338;28;19918;-77
2022/04/24 07:21:48;;;;;;;;;;;;;;;19.78;34.28;100693.34;4989090;28;20012;-78
2022/04/24 07:24:13;;;;;;;;;;;;;;;19.75;34.93;100697.75;5005785;28;19925;-77
2022/04/24 07:26:38;;;;;;;;;;;;;;;19.68;35.69;100690.03;4972962;28;20288;-78
2022/04/24 07:29:03;;;;;;;;;;;;;;;19.75;35.62;100690.81;4965575;28;19924;-77
2022/04/24 07:31:29;;;;;;;;;;;;;;;19.79;35.65;100702.88;4964453;28;19929;-77
2022/04/24 07:33:56;;;;;;;;;;;;;;;19.83;35.55;100707.16;4964212;28;19957;-77
2022/04/24 07:36:21;;;;;;;;;;;;;;;19.90;34.88;100710.50;4980367;28;19918;-77
2022/04/24 07:38:47;;;;;;;;;;;;;;;19.88;34.14;100704.44;4964741;28;20388;-77
2022/04/24 07:41:12;;;;;;;;;;;;;;;19.79;35.19;100708.13;4998576;28;19972;-77
2022/04/24 07:43:37;;;;;;;;;;;;;;;19.81;35.42;100703.72;4980920;28;19913;-77
2022/04/24 07:46:03;;;;;;;;;;;;;;;19.76;33.95;100700.34;4981078;28;19968;-77
2022/04/24 07:48:28;;;;;;;;;;;;;;;19.76;34.63;100709.94;4964930;28;19918;-77
2022/04/24 07:50:54;;;;;;;;;;;;;;;19.76;35.41;100710.81;4980636;28;19952;-77
2022/04/24 07:53:20;;;;;;;;;;;;;;;19.75;35.41;100711.72;4964822;28;19983;-77
2022/04/24 07:55:46;;;;;;;;;;;;;;;19.80;35.00;100707.25;4981963;28;20311;-76
2022/04/24 07:58:12;;;;;;;;;;;;;;;19.78;35.34;100703.78;4979928;28;20353;-77
2022/04/24 08:00:37;;;;;;;;;;;;;;;19.85;35.27;100707.13;4979698;28;19965;-78
2022/04/24 08:03:04;;;;;;;;;;;;;;;19.89;34.04;100707.03;4979804;28;19918;-79
2022/04/24 08:05:33;;;;;;;;;;;;;;;19.80;34.52;100701.16;4979931;28;19921;-78
2022/04/24 08:08:00;;;;;;;;;;;;;;;19.78;34.84;100716.00;4980092;28;19918;-77
2022/04/24 08:10:26;;;;;;;;;;;;;;;19.80;34.56;100711.59;4979933;28;20285;-77
2022/04/24 08:12:51;;;;;;;;;;;;;;;19.81;35.47;100711.56;4980331;28;19918;-77
2022/04/24 08:15:17;;;;;;;;;;;;;;;19.83;35.44;100716.75;4963980;28;19941;-76
2022/04/24 08:17:42;;;;;;;;;;;;;;;19.79;33.69;100712.47;4997252;28;19920;-79
2022/04/24 08:20:08;;;;;;;;;;;;;;;19.71;34.78;100718.72;4980029;28;19941;-76
2022/04/24 08:22:44;;;;;;;;;;;;;;;19.75;35.04;100719.53;4997532;28;19976;-76
2022/04/24 08:25:10;;;;;;;;;;;;;;;19.78;34.17;100726.44;4979999;28;19938;-77
2022/04/24 08:27:36;;;;;;;;;;;;;;;19.72;34.42;100730.03;4963412;28;19945;-79
2022/04/24 08:30:03;;;;;;;;;;;;;;;19.69;33.91;100733.56;4979599;28;19921;-76
2022/04/24 08:32:29;;;;;;;;;;;;;;;19.67;34.42;100726.63;4979245;28;19972;-76
2022/04/24 08:34:56;;;;;;;;;;;;;;;19.64;34.77;100726.66;4979773;28;19914;-76
2022/04/24 08:37:21;;;;;;;;;;;;;;;19.55;34.50;100732.94;4997250;28;19925;-76
2022/04/24 08:39:47;;;;;;;;;;;;;;;19.55;34.48;100732.94;4997073;28;19922;-77
2022/04/24 08:42:13;;;;;;;;;;;;;;;19.56;34.69;100731.19;4978870;28;20272;-76
2022/04/24 08:44:39;;;;;;;;;;;;;;;19.54;34.38;100731.22;4979342;28;19924;-76
2022/04/24 08:47:05;;;;;;;;;;;;;;;19.46;34.70;100731.34;4979810;28;19913;-77
2022/04/24 08:49:31;;;;;;;;;;;;;;;19.41;34.83;100730.59;4998640;28;19920;-76
2022/04/24 08:51:58;;;;;;;;;;;;;;;19.40;34.72;100738.44;4980852;28;20455;-76
2022/04/24 08:54:26;;;;;;;;;;;;;;;19.42;35.28;100740.13;4979904;28;19921;-77
2022/04/24 08:56:52;;;;;;;;;;;;;;;19.41;34.87;100737.56;4979994;28;19918;-77
2022/04/24 08:59:17;;;;;;;;;;;;;;;19.36;34.59;100744.59;4964471;28;19918;-77
2022/04/24 09:01:45;;;;;;;;;;;;;;;19.38;35.22;100733.28;5003433;28;19945;-77
2022/04/24 09:04:10;;;;;;;;;;;;;;;19.43;34.93;100736.66;4983846;28;19924;-76
2022/04/24 09:06:43;;;;;;;;;;;;;;;19.43;35.08;100736.66;4967684;28;19969;-84
2022/04/24 09:09:08;;;;;;;;;;;;;;;19.45;35.04;100741.84;4987743;28;20030;-82
2022/04/24 09:11:34;;;;;;;;;;;;;;;19.35;34.89;100737.69;5002645;28;19991;-84
2022/04/24 09:14:14;;;;;;;;;;;;;;;19.23;35.30;100744.00;5019572;28;19914;-83
2022/04/24 09:16:46;;;;;;;;;;;;;;;19.25;35.40;100742.19;5019420;28;19989;-82
2022/04/24 09:19:21;;;;;;;;;;;;;;;19.24;35.32;100756.13;5017619;28;20289;-80
2022/04/24 09:21:47;;;;;;;;;;;;;;;19.18;35.34;100745.81;5001270;28;19922;-84
2022/04/24 09:24:13;;;;;;;;;;;;;;;19.13;35.43;100752.84;5019153;28;19922;-84
2022/04/24 09:26:48;;;;;;;;;;;;;;;19.17;35.38;100757.13;5018707;28;19945;-84
2022/04/24 09:29:13;;;;;;;;;;;;;;;19.17;35.28;100760.59;5002222;28;19906;-84
2022/04/24 09:31:43;;;;;;;;;;;;;;;19.15;35.15;100759.75;5018044;28;19976;-82
2022/04/24 09:34:11;;;;;;;;;;;;;;;18.99;35.58;100756.56;5001927;28;19916;-82
2022/04/24 09:36:37;;;;;;;;;;;;;;;18.96;35.72;100754.00;5000841;28;19929;-84
2022/04/24 09:39:02;;;;;;;;;;;;;;;18.94;35.66;100749.69;5000925;28;19981;-85
2022/04/24 09:41:27;;;;;;;;;;;;;;;18.99;35.80;100756.56;5019226;28;19913;-85
2022/04/24 09:43:53;;;;;;;;;;;;;;;18.94;35.98;100753.16;5002605;28;19906;-85
2022/04/24 09:46:26;;;;;;;;;;;;;;;18.91;36.05;100761.88;5002567;28;19969;-83
2022/04/24 09:48:52;;;;;;;;;;;;;;;18.81;35.74;100762.06;5002162;28;19929;-85
2022/04/24 09:51:17;;;;;;;;;;;;;;;18.85;35.99;100761.97;5001172;28;19914;-84
2022/04/24 10:09:15;;;;;;;;;;;;;;;18.68;36.36;100766.56;5183069;23;19926;-84
2022/04/24 10:27:11;;;;;;;;;;;;;;;18.57;36.86;100778.91;5977392;23;20155;-82
2022/04/24 10:29:57;;;;;;;;;;;;;;;18.55;36.54;100763.28;5005204;28;19960;-85
2022/04/24 10:32:27;;;;;;;;;;;;;;;18.60;36.52;100786.69;5005019;28;19910;-84
2022/04/24 10:34:52;;;;;;;;;;;;;;;18.57;36.58;100779.75;5022176;28;19929;-83
2022/04/24 10:37:25;;;;;;;;;;;;;;;18.52;36.24;100785.94;5004813;28;19922;-83
2022/04/24 10:39:58;;;;;;;;;;;;;;;18.54;36.48;100777.22;5003944;28;19920;-82
2022/04/24 10:42:34;;;;;;;;;;;;;;;18.55;36.32;100778.06;5004918;28;19957;-84
2022/04/24 10:45:04;;;;;;;;;;;;;;;18.48;36.65;100777.28;5022194;28;19912;-85
2022/04/24 10:47:39;;;;;;;;;;;;;;;18.56;36.65;100790.22;5005355;28;19938;-85
2022/04/24 10:50:06;;;;;;;;;;;;;;;18.49;36.46;100769.47;5005439;28;19906;-85
2022/04/24 10:52:42;;;;;;;;;;;;;;;18.46;36.26;100790.34;5005137;28;19946;-85
2022/04/24 10:55:09;;;;;;;;;;;;;;;18.43;36.46;100776.50;5022052;28;19906;-84
2022/04/24 10:57:40;;;;;;;;;;;;;;;18.45;36.31;100779.94;5004536;28;19898;-85
2022/04/24 11:02:40;;;;;;;;;;;;;;;18.32;35.99;100778.41;5027331;23;19934;-82
2022/04/24 11:05:06;;;;;;;;;;;;;;;18.36;35.92;100782.69;5004758;28;19915;-83
2022/04/24 11:07:33;;;;;;;;;;;;;;;18.41;35.64;100781.72;5004982;28;20497;-84
2022/04/24 11:17:51;;;;;;;;;;;;;;;18.41;35.05;100768.69;5154853;23;19926;-84
2022/04/24 11:20:16;;;;;;;;;;;;;;;18.41;34.82;100768.69;4981965;28;19913;-82
2022/04/24 11:22:48;;;;;;;;;;;;;;;18.41;34.76;100767.84;4982667;28;19907;-84
2022/04/24 11:25:15;;;;;;;;;;;;;;;18.46;34.88;100759.06;5540947;23;19925;-80
2022/04/24 11:27:49;;;;;;;;;;;;;;;18.53;34.81;100758.97;5001388;28;19918;-82
2022/04/24 11:30:16;;;;;;;;;;;;;;;18.52;34.34;100768.53;5002590;28;19917;-84
2022/04/24 11:32:57;;;;;;;;;;;;;;;18.48;34.42;100765.13;5004143;28;19933;-83
2022/04/24 11:35:25;;;;;;;;;;;;;;;18.50;34.35;100760.75;5000765;28;19913;-84
2022/04/24 11:37:51;;;;;;;;;;;;;;;18.50;34.15;100762.50;5001878;28;19913;-83
2022/04/24 11:40:16;;;;;;;;;;;;;;;18.52;33.88;100759.88;5000724;28;19922;-84
2022/04/24 11:42:42;;;;;;;;;;;;;;;18.55;33.80;100760.66;5003977;28;19928;-81
2022/04/24 11:50:51;;;;;;;;;;;;;;;18.60;33.47;100758.88;5007476;28;19959;-82
2022/04/24 11:53:17;;;;;;;;;;;;;;;18.54;33.46;100755.50;4994581;28;19914;-82
2022/04/24 11:58:26;;;;;;;;;;;;;;;18.57;33.11;100747.63;5017355;28;19920;-82
2022/04/24 12:00:51;;;;;;;;;;;;;;;18.60;33.17;100764.09;5002770;28;19921;-82
2022/04/24 12:03:17;;;;;;;;;;;;;;;18.61;32.95;100763.19;4999115;28;19929;-82
2022/04/24 12:05:43;;;;;;;;;;;;;;;18.61;33.30;100757.97;4997848;28;19957;-83
2022/04/24 12:08:12;;;;;;;;;;;;;;;18.59;32.75;100766.72;5018474;28;19914;-83
2022/04/24 12:31:39;;;;;;;;;;;;;;;18.55;31.81;100765.88;5067921;23;19925;31
2022/04/24 15:47:49;;;;;;;;;;;;;;;19.13;43.43;100838.94;6070427;23;19921;31
2022/04/24 16:21:20;;;;;;;;;;;;;;;19.25;45.75;100865.69;6018504;23;19922;31
2022/04/24 16:44:27;;;;;;;;;;;;;;;19.14;44.75;100892.81;5681043;23;19933;-82
2022/04/24 18:07:13;;;;;;;;;;;;;;;18.95;43.64;100945.25;6071384;23;19917;-78
2022/04/24 18:09:38;;;;;;;;;;;;;;;18.97;44.23;100948.69;4979987;28;20380;-77
2022/04/24 18:12:04;;;;;;;;;;;;;;;19.04;44.70;100944.25;4980277;28;19924;-76
2022/04/24 18:14:29;;;;;;;;;;;;;;;18.96;44.06;100946.97;4980823;28;19914;-77
2022/04/24 18:16:54;;;;;;;;;;;;;;;19.02;44.41;100951.25;4980842;28;19925;-77
2022/04/24 18:19:20;;;;;;;;;;;;;;;19.06;44.64;100945.09;4980380;28;20361;-77
2022/04/24 18:21:45;;;;;;;;;;;;;;;18.93;44.43;100947.03;4966684;28;20391;-77
2022/04/24 18:24:11;;;;;;;;;;;;;;;18.99;44.37;100948.66;4984563;28;19918;-77
2022/04/24 18:26:36;;;;;;;;;;;;;;;19.01;44.74;100954.72;4987061;28;19980;-77
2022/04/24 18:29:02;;;;;;;;;;;;;;;18.91;44.28;100962.69;4969042;28;19918;-77
2022/04/24 18:31:28;;;;;;;;;;;;;;;18.83;44.80;100961.06;4985116;28;19914;-78
2022/04/24 18:33:54;;;;;;;;;;;;;;;18.80;44.28;100958.50;4984252;28;19920;-77
2022/04/24 18:39:03;;;;;;;;;;;;;;;18.94;44.31;100964.38;4989978;28;19924;-77
2022/04/24 18:41:29;;;;;;;;;;;;;;;18.98;44.01;100967.81;4989384;28;19937;-79
2022/04/24 18:43:55;;;;;;;;;;;;;;;18.88;44.19;100969.69;4985978;28;19929;-78
2022/04/24 18:46:21;;;;;;;;;;;;;;;18.93;44.26;100967.88;4990891;28;19914;-78
2022/04/24 18:48:46;;;;;;;;;;;;;;;18.88;44.27;100980.13;4974882;28;19917;-78
2022/04/24 18:51:11;;;;;;;;;;;;;;;18.98;44.82;100989.53;5009062;28;20397;-77
2022/04/24 18:53:37;;;;;;;;;;;;;;;18.97;44.41;100987.81;4989123;28;19957;-78
2022/04/24 18:56:03;;;;;;;;;;;;;;;19.02;44.21;100986.00;5007990;28;20331;-79
2022/04/24 18:58:28;;;;;;;;;;;;;;;18.88;44.07;100993.16;4986289;28;19936;-77
2022/04/24 19:00:53;;;;;;;;;;;;;;;18.84;44.29;100994.94;4976911;28;20391;-77
2022/04/24 19:03:19;;;;;;;;;;;;;;;18.69;44.12;100995.94;4987112;28;19922;-78
2022/04/24 19:08:29;;;;;;;;;;;;;;;18.89;44.53;100995.72;4981935;28;19955;-77
2022/04/24 19:13:49;;;;;;;;;;;;;;;18.84;45.36;101004.50;4955399;28;19918;-78
2022/04/24 19:16:18;;;;;;;;;;;;;;;18.88;43.97;101006.19;4963444;28;19914;-77
2022/04/24 19:18:48;;;;;;;;;;;;;;;18.90;44.23;101009.63;4946288;28;19918;-77
2022/04/24 19:21:14;;;;;;;;;;;;;;;18.89;44.05;101010.53;4962512;28;19914;-77
2022/04/24 19:23:40;;;;;;;;;;;;;;;18.92;44.44;101018.28;4947294;28;19961;-77
2022/04/24 19:26:05;;;;;;;;;;;;;;;18.91;44.50;101020.03;4945989;28;20293;-77
2022/04/24 19:28:31;;;;;;;;;;;;;;;18.78;43.98;101020.22;4946124;28;19934;-77
2022/04/24 19:30:57;;;;;;;;;;;;;;;18.81;44.03;101030.59;4961575;28;19914;-77
2022/04/24 19:33:22;;;;;;;;;;;;;;;18.76;44.00;101033.22;4945194;28;20324;-77
2022/04/24 19:35:48;;;;;;;;;;;;;;;18.76;45.29;101029.75;4945734;28;19918;-77
2022/04/24 19:38:13;;;;;;;;;;;;;;;18.82;44.23;101037.56;4945622;28;19926;-77
2022/04/24 20:15:06;;;;;;;;;;;;;;;18.79;44.21;101068.84;4903298;29;19940;-89
2022/04/24 20:17:31;;;;;;;;;;;;;;;18.82;44.31;101074.06;4923316;29;19911;-89
2022/04/24 20:19:57;;;;;;;;;;;;;;;18.83;44.03;101063.59;4923611;29;19924;-88
2022/04/24 20:22:24;;;;;;;;;;;;;;;18.82;44.16;101063.63;4924183;29;19923;-87
2022/04/24 20:24:52;;;;;;;;;;;;;;;18.74;44.14;101070.63;4923747;29;19924;-89
2022/04/24 20:27:17;;;;;;;;;;;;;;;18.80;44.26;101074.06;4923890;29;19930;-88
2022/04/24 21:21:25;;;;;;;;;;;;;;;18.79;44.11;101102.75;5944017;23;19929;-79
2022/04/24 21:23:51;;;;;;;;;;;;;;;18.91;44.56;101103.50;5001559;28;19977;-84